Time;durP1;ratioP1;P1;durP2;ratioP2;P2;SDS_P1;SDS_P2;PMS_P1;PMS_P2;Temp;Humidity;BMP_temperature;BMP_pressure;BME280_temperature;BME280_humidity;BME280_pressure;Samples;Min_cycle;Max_cycle;Signal;HPM_P1;HPM_P2
2023/04/11 00:02:06;;;;;;;10.70;9.80;;;;;;;8.60;61.99;94672.72;4990071;28;20230;-68
2023/04/11 00:04:33;;;;;;;11.20;10.27;;;;;;;8.55;62.29;94666.28;4991050;28;20314;-67
2023/04/11 00:06:59;;;;;;;11.40;10.40;;;;;;;8.54;62.21;94669.88;4992357;28;20227;-67
2023/04/11 00:09:25;;;;;;;10.30;9.50;;;;;;;8.60;62.09;94666.66;4990334;28;20680;-68
2023/04/11 00:11:50;;;;;;;10.43;9.53;;;;;;;8.52;62.12;94658.72;4992815;28;20211;-68
2023/04/11 00:14:16;;;;;;;10.73;9.80;;;;;;;8.50;62.28;94656.25;4990884;28;20215;-68
2023/04/11 00:16:42;;;;;;;11.50;10.43;;;;;;;8.47;62.65;94660.97;4997220;28;20318;-67
2023/04/11 00:19:08;;;;;;;11.10;10.13;;;;;;;8.35;62.76;94653.28;4992314;28;20234;-68
2023/04/11 00:21:38;;;;;;;11.20;10.27;;;;;;;8.37;62.94;94661.81;4991426;28;20691;-68
2023/04/11 00:24:07;;;;;;;11.63;10.53;;;;;;;8.11;63.81;94647.75;4992034;28;20198;-68
2023/04/11 00:26:32;;;;;;;10.93;10.00;;;;;;;8.32;63.37;94658.81;4976481;28;20259;-67
2023/04/11 00:28:58;;;;;;;11.80;10.80;;;;;;;8.34;63.08;94656.88;4991756;28;20307;-67
2023/04/11 00:31:23;;;;;;;11.03;10.13;;;;;;;8.39;63.13;94657.28;4991982;28;20226;-67
2023/04/11 00:33:49;;;;;;;11.80;10.70;;;;;;;8.42;62.96;94655.31;4990165;28;20228;-68
2023/04/11 00:36:15;;;;;;;11.43;10.40;;;;;;;8.44;62.76;94656.84;4991077;28;20288;-68
2023/04/11 00:38:41;;;;;;;11.73;10.73;;;;;;;8.41;62.76;94651.91;5000501;28;20228;-68
2023/04/11 00:41:07;;;;;;;11.97;10.87;;;;;;;8.44;62.63;94650.78;4991361;28;20293;-68
2023/04/11 00:43:32;;;;;;;11.27;10.33;;;;;;;8.49;62.60;94645.91;4991133;28;20220;-68
2023/04/11 00:45:59;;;;;;;11.30;10.30;;;;;;;8.46;62.48;94657.53;4988749;28;20234;-68
2023/04/11 00:48:27;;;;;;;11.57;10.60;;;;;;;8.42;62.38;94652.72;4990090;28;20227;-67
2023/04/11 00:50:53;;;;;;;10.73;9.83;;;;;;;8.44;62.86;94648.16;4991650;28;20677;-68
2023/04/11 00:53:19;;;;;;;11.33;10.33;;;;;;;8.42;62.84;94648.31;4990010;28;20318;-68
2023/04/11 00:55:45;;;;;;;11.27;10.27;;;;;;;8.34;62.84;94654.25;4995438;28;20310;-67
2023/04/11 00:58:11;;;;;;;11.23;10.23;;;;;;;8.44;62.45;94641.13;4990062;28;20251;-67
2023/04/11 01:00:37;;;;;;;11.97;10.67;;;;;;;8.25;62.83;94644.66;4990349;28;20248;-68
2023/04/11 01:03:03;;;;;;;10.80;9.80;;;;;;;8.39;62.69;94648.59;4989303;28;20198;-67
2023/04/11 01:05:30;;;;;;;11.60;10.60;;;;;;;8.26;63.33;94656.78;4991673;28;20235;-67
2023/04/11 01:07:56;;;;;;;10.87;9.87;;;;;;;8.01;64.20;94650.41;4991241;28;20253;-67
2023/04/11 01:10:24;;;;;;;10.47;9.57;;;;;;;8.26;62.97;94653.31;4990964;28;20231;-68
2023/04/11 01:12:50;;;;;;;11.67;10.67;;;;;;;8.23;63.00;94659.69;4974957;28;20238;-69
2023/04/11 01:15:15;;;;;;;10.97;10.07;;;;;;;8.38;63.05;94647.75;4990682;28;20203;-68
2023/04/11 01:17:41;;;;;;;12.03;10.83;;;;;;;8.26;63.12;94646.31;4999002;28;20206;-68
2023/04/11 01:20:08;;;;;;;12.33;11.23;;;;;;;8.32;63.13;94653.56;4991087;28;20235;-68
2023/04/11 01:22:36;;;;;;;12.33;10.87;;;;;;;8.46;62.98;94660.13;4991002;28;20239;-68
2023/04/11 01:25:02;;;;;;;11.07;10.17;;;;;;;8.44;62.92;94650.78;4984645;28;20295;-68
2023/04/11 01:27:28;;;;;;;12.17;11.07;;;;;;;8.37;62.96;94653.97;4991265;28;20219;-68
2023/04/11 01:29:53;;;;;;;11.90;10.90;;;;;;;8.42;62.60;94653.56;4991173;28;20214;-67
2023/04/11 01:32:19;;;;;;;12.30;11.20;;;;;;;8.45;62.87;94648.03;4989336;28;20314;-68
2023/04/11 01:34:46;;;;;;;12.40;11.40;;;;;;;8.42;63.07;94655.31;4989111;28;20231;-68
2023/04/11 01:37:12;;;;;;;12.00;11.00;;;;;;;8.38;63.08;94642.50;5006165;28;20232;-68
2023/04/11 01:39:37;;;;;;;12.03;11.03;;;;;;;8.44;62.67;94642.91;4990758;28;20223;-67
2023/04/11 01:42:03;;;;;;;12.00;11.00;;;;;;;8.44;62.79;94642.91;4990835;28;20198;-67
2023/04/11 01:44:31;;;;;;;11.67;10.67;;;;;;;8.35;63.20;94634.94;4990822;28;20207;-68
2023/04/11 01:46:57;;;;;;;12.97;11.77;;;;;;;8.29;63.07;94648.63;4988975;28;20227;-68
2023/04/11 01:49:23;;;;;;;12.53;11.30;;;;;;;8.29;63.18;94635.53;4990063;28;20267;-68
2023/04/11 01:51:49;;;;;;;11.77;10.77;;;;;;;8.12;63.70;94631.88;4990816;28;20235;-68
2023/04/11 01:54:14;;;;;;;12.53;11.43;;;;;;;8.22;63.25;94628.41;4989204;28;20199;-68
2023/04/11 01:56:40;;;;;;;11.93;10.83;;;;;;;8.14;63.80;94624.72;4991401;28;20207;-68
2023/04/11 01:59:05;;;;;;;13.47;12.27;;;;;;;8.01;64.34;94636.50;4990887;28;20230;-68
2023/04/11 02:01:31;;;;;;;13.00;11.87;;;;;;;8.08;63.67;94630.56;4987601;28;20252;-68
2023/04/11 02:03:56;;;;;;;12.13;11.03;;;;;;;8.10;63.97;94633.00;4987774;28;20244;-68
2023/04/11 02:06:22;;;;;;;13.30;12.17;;;;;;;8.08;63.82;94633.16;4984770;28;20359;-68
2023/04/11 02:08:47;;;;;;;13.10;11.90;;;;;;;8.14;63.50;94626.53;4987679;28;20224;-67
2023/04/11 02:11:13;;;;;;;13.90;12.53;;;;;;;8.16;63.37;94616.72;4992175;28;20703;-68
2023/04/11 02:13:38;;;;;;;13.13;12.00;;;;;;;8.10;63.54;94633.84;4994507;28;20246;-68
2023/04/11 02:16:10;;;;;;;14.23;13.00;;;;;;;7.94;63.76;94626.63;4994125;28;20285;-68
2023/04/11 02:18:36;;;;;;;13.77;12.37;;;;;;;7.97;63.90;94629.94;4990536;28;20223;-68
2023/04/11 02:21:03;;;;;;;14.00;12.70;;;;;;;8.05;63.80;94636.09;4994094;28;20225;-68
2023/04/11 02:23:28;;;;;;;13.83;12.63;;;;;;;8.01;63.83;94634.72;4977820;28;20195;-68
2023/04/11 02:25:54;;;;;;;14.20;12.83;;;;;;;7.97;64.00;94632.56;4987875;28;20270;-68
2023/04/11 02:28:21;;;;;;;13.67;12.37;;;;;;;8.08;63.71;94637.59;4993030;28;20258;-68
2023/04/11 02:30:46;;;;;;;14.27;12.97;;;;;;;8.21;63.60;94637.25;4990350;28;20247;-68
2023/04/11 02:33:12;;;;;;;13.70;12.40;;;;;;;8.16;63.23;94630.63;4993259;28;20222;-68
2023/04/11 02:35:38;;;;;;;13.97;12.73;;;;;;;8.22;63.16;94637.09;4994875;28;20214;-68
2023/04/11 02:38:03;;;;;;;14.40;13.10;;;;;;;8.28;62.91;94630.44;4994137;28;20231;-67
2023/04/11 02:40:29;;;;;;;14.60;13.30;;;;;;;8.24;62.91;94627.28;5000679;28;20231;-68
2023/04/11 02:42:54;;;;;;;15.70;14.20;;;;;;;8.22;62.72;94631.03;4993319;28;20234;-68
2023/04/11 02:45:20;;;;;;;15.10;13.70;;;;;;;8.13;62.99;94637.97;4994217;28;20314;-68
2023/04/11 02:47:46;;;;;;;14.37;13.07;;;;;;;8.04;63.59;94637.03;4994852;28;20635;-68
2023/04/11 02:50:11;;;;;;;13.83;12.63;;;;;;;8.11;63.15;94632.06;4993877;28;20227;-68
2023/04/11 02:52:38;;;;;;;15.50;14.10;;;;;;;8.05;63.14;94637.88;4993893;28;20224;-68
2023/04/11 02:55:04;;;;;;;16.00;14.50;;;;;;;8.03;62.92;94621.50;4993418;28;20251;-68
2023/04/11 02:57:29;;;;;;;15.33;13.93;;;;;;;8.01;63.14;94612.94;4976971;28;20223;-68
2023/04/11 02:59:55;;;;;;;15.93;14.53;;;;;;;8.07;62.74;94618.44;4994144;28;20187;-68
2023/04/11 03:02:22;;;;;;;15.93;14.53;;;;;;;7.78;63.52;94604.63;4993325;28;20223;-68
2023/04/11 03:04:47;;;;;;;17.03;15.47;;;;;;;7.78;63.51;94613.34;4994764;28;20290;-68
2023/04/11 03:07:13;;;;;;;16.13;14.70;;;;;;;7.71;63.88;94614.88;4993784;28;20243;-67
2023/04/11 03:09:38;;;;;;;16.40;14.83;;;;;;;7.84;63.07;94612.75;4993412;28;20226;-68
2023/04/11 03:12:04;;;;;;;17.13;15.53;;;;;;;7.69;63.77;94608.97;4993776;28;20183;-68
2023/04/11 03:14:29;;;;;;;17.07;15.47;;;;;;;7.67;63.85;94610.88;4993947;28;20191;-67
2023/04/11 03:16:55;;;;;;;16.57;14.97;;;;;;;7.76;62.87;94615.28;4992924;28;20223;-68
2023/04/11 03:19:20;;;;;;;16.80;15.30;;;;;;;7.86;63.03;94610.00;5009734;28;20302;-68
2023/04/11 03:21:45;;;;;;;16.27;14.77;;;;;;;7.68;63.39;94613.38;4988906;28;20227;-68
2023/04/11 03:24:11;;;;;;;16.70;15.10;;;;;;;7.70;63.28;94615.84;4993589;28;20576;-67
2023/04/11 03:26:37;;;;;;;17.10;15.53;;;;;;;7.76;63.04;94620.50;4994161;28;20243;-68
2023/04/11 03:29:02;;;;;;;15.90;14.50;;;;;;;7.79;63.13;94611.53;4993159;28;20242;-68
2023/04/11 03:31:29;;;;;;;16.67;15.10;;;;;;;7.82;62.81;94614.69;4987619;28;20219;-68
2023/04/11 03:33:54;;;;;;;16.90;15.30;;;;;;;7.86;62.49;94616.06;5001140;28;20219;-68
2023/04/11 03:36:21;;;;;;;17.40;15.70;;;;;;;7.94;62.02;94613.53;4992964;28;20249;-68
2023/04/11 03:38:47;;;;;;;15.73;14.23;;;;;;;7.88;62.72;94623.75;4993703;28;20175;-68
2023/04/11 03:41:13;;;;;;;16.87;15.27;;;;;;;7.90;62.29;94611.34;4993264;28;20218;-68
2023/04/11 03:43:38;;;;;;;16.20;14.70;;;;;;;7.78;62.71;94604.63;4992979;28;20247;-67
2023/04/11 03:46:04;;;;;;;17.57;15.77;;;;;;;7.80;62.68;94608.75;4991313;28;20281;-68
2023/04/11 03:48:30;;;;;;;17.23;15.73;;;;;;;7.76;62.87;94619.69;4992980;28;20308;-67
2023/04/11 03:50:56;;;;;;;16.43;15.03;;;;;;;7.82;62.66;94613.88;4993234;28;20253;-68
2023/04/11 03:53:21;;;;;;;17.80;16.03;;;;;;;7.72;62.60;94608.66;4993070;28;20266;-68
2023/04/11 03:55:51;;;;;;;17.27;15.57;;;;;;;7.64;63.29;94616.41;4992638;28;20235;-68
2023/04/11 03:58:17;;;;;;;17.53;15.93;;;;;;;7.61;63.18;94609.66;4989925;28;20228;-68
2023/04/11 04:00:42;;;;;;;16.63;15.13;;;;;;;7.68;62.78;94613.38;4992614;28;20227;-67
2023/04/11 04:03:07;;;;;;;18.77;17.00;;;;;;;7.61;63.29;94611.47;4992441;28;20184;-68
2023/04/11 04:05:33;;;;;;;18.00;16.10;;;;;;;7.53;63.26;94619.22;4993276;28;20262;-67
2023/04/11 04:07:58;;;;;;;18.40;16.60;;;;;;;7.58;62.93;94614.38;4992565;28;20242;-67
2023/04/11 04:10:24;;;;;;;18.50;16.80;;;;;;;7.63;63.04;94622.63;4987015;28;20263;-68
2023/04/11 04:12:50;;;;;;;18.30;16.60;;;;;;;7.65;63.10;94613.66;4992358;28;20306;-68
2023/04/11 04:15:15;;;;;;;18.13;16.43;;;;;;;7.60;63.23;94622.91;4992301;28;20651;-68
2023/04/11 04:17:41;;;;;;;18.70;16.83;;;;;;;7.47;63.50;94621.44;4993006;28;20179;-68
2023/04/11 04:20:09;;;;;;;19.17;17.30;;;;;;;7.58;63.03;94617.00;4992655;28;20241;-68
2023/04/11 04:22:37;;;;;;;18.30;16.53;;;;;;;7.65;62.72;94616.28;4991773;28;20235;-68
2023/04/11 04:25:04;;;;;;;17.60;16.00;;;;;;;7.61;62.78;94614.09;4991406;28;20238;-67
2023/04/11 04:27:29;;;;;;;18.27;16.57;;;;;;;7.53;63.55;94609.56;4991715;28;20215;-68
2023/04/11 04:29:55;;;;;;;19.97;18.07;;;;;;;7.59;63.29;94616.00;4992632;28;20197;-68
2023/04/11 04:32:22;;;;;;;18.93;17.03;;;;;;;7.55;63.15;94612.88;4991315;28;20234;-68
2023/04/11 04:34:54;;;;;;;20.10;17.67;;;;;;;7.40;63.47;94604.63;4970999;28;20223;-68
2023/04/11 04:37:22;;;;;;;19.37;17.50;;;;;;;7.48;63.22;94610.00;4991123;28;20242;-68
2023/04/11 04:39:55;;;;;;;19.27;17.57;;;;;;;7.57;63.05;94615.34;4984910;28;20328;-68
2023/04/11 04:42:25;;;;;;;20.23;18.17;;;;;;;7.50;63.28;94625.56;4967689;28;20219;-68
2023/04/11 04:44:51;;;;;;;20.40;18.50;;;;;;;7.43;63.40;94614.00;4987382;28;20176;-68
2023/04/11 04:47:18;;;;;;;19.67;17.87;;;;;;;7.35;63.52;94609.50;4990859;28;20224;-68
2023/04/11 04:49:44;;;;;;;19.97;18.17;;;;;;;7.41;63.53;94606.31;4988943;28;20228;-69
2023/04/11 04:52:11;;;;;;;20.43;18.43;;;;;;;7.34;63.63;94602.59;5006037;28;20230;-68
2023/04/11 04:54:36;;;;;;;20.77;18.87;;;;;;;7.32;63.55;94612.38;4983117;28;20248;-68
2023/04/11 04:57:02;;;;;;;21.17;19.20;;;;;;;7.22;63.88;94596.72;4991756;28;20239;-68
2023/04/11 04:59:27;;;;;;;20.70;18.70;;;;;;;7.28;63.89;94596.16;4988914;28;20192;-68
2023/04/11 05:01:53;;;;;;;21.03;19.03;;;;;;;7.33;63.96;94605.38;4988525;28;20227;-68
2023/04/11 05:04:19;;;;;;;20.40;18.43;;;;;;;7.20;64.22;94608.28;4990903;28;20255;-68
2023/04/11 05:06:45;;;;;;;20.90;19.00;;;;;;;7.11;64.25;94619.56;4991205;28;20234;-67
2023/04/11 05:09:10;;;;;;;21.00;19.00;;;;;;;7.24;63.92;94607.03;4990865;28;20278;-68
2023/04/11 05:11:35;;;;;;;21.20;19.20;;;;;;;7.38;63.37;94601.38;4989974;28;20214;-68
2023/04/11 05:14:01;;;;;;;19.93;18.10;;;;;;;7.29;63.52;94592.56;5000602;28;20608;-68
2023/04/11 05:16:26;;;;;;;20.00;18.20;;;;;;;7.21;63.54;94589.81;4991313;28;20732;-68
2023/04/11 05:18:52;;;;;;;19.77;17.83;;;;;;;7.12;64.03;94613.41;4991153;28;20238;-68
2023/04/11 05:21:17;;;;;;;20.37;18.30;;;;;;;7.07;64.06;94596.34;4989463;28;20210;-68
2023/04/11 05:23:43;;;;;;;19.63;17.83;;;;;;;7.20;63.56;94601.28;4989216;28;20191;-68
2023/04/11 05:26:09;;;;;;;20.30;18.33;;;;;;;7.01;64.22;94598.69;5001398;28;20215;-68
2023/04/11 05:28:35;;;;;;;21.57;19.47;;;;;;;7.30;63.33;94601.25;4990718;28;20216;-67
2023/04/11 05:31:01;;;;;;;19.93;18.10;;;;;;;7.30;63.30;94601.25;4984892;28;20230;-68
2023/04/11 05:33:26;;;;;;;19.63;17.90;;;;;;;7.41;63.23;94595.03;4988387;28;20279;-69
2023/04/11 05:35:52;;;;;;;19.67;17.90;;;;;;;7.41;63.02;94600.25;4988779;28;20218;-69
2023/04/11 05:38:18;;;;;;;19.97;18.17;;;;;;;7.45;63.18;94596.38;4979384;28;20274;-68
2023/04/11 05:40:44;;;;;;;18.47;16.67;;;;;;;7.33;62.77;94593.13;4990882;28;20226;-69
2023/04/11 05:43:13;;;;;;;20.10;18.10;;;;;;;7.33;63.20;94590.50;4990725;28;20219;-69
2023/04/11 05:45:39;;;;;;;18.87;16.87;;;;;;;7.41;62.96;94601.06;4991041;28;20255;-68
2023/04/11 05:48:08;;;;;;;19.47;17.67;;;;;;;7.41;63.02;94580.16;4992550;28;20194;-69
2023/04/11 05:50:35;;;;;;;19.73;17.83;;;;;;;7.50;62.85;94583.69;4991565;28;20266;-68
2023/04/11 05:53:01;;;;;;;19.23;17.40;;;;;;;7.84;61.40;94591.00;4994602;28;20215;-68
2023/04/11 05:55:27;;;;;;;19.63;17.73;;;;;;;7.83;61.49;94594.56;4994443;28;20219;-68
2023/04/11 05:57:52;;;;;;;18.80;16.97;;;;;;;7.99;61.14;94586.06;4994313;28;20250;-68
2023/04/11 06:00:19;;;;;;;18.33;16.63;;;;;;;8.01;61.24;94576.28;4994445;28;20205;-68
2023/04/11 06:02:46;;;;;;;16.80;15.30;;;;;;;8.15;60.73;94586.25;4993747;28;20290;-68
2023/04/11 06:05:12;;;;;;;18.10;16.30;;;;;;;8.09;61.18;94579.00;4994057;28;20230;-68
2023/04/11 06:07:38;;;;;;;17.63;15.93;;;;;;;8.21;60.34;94566.53;4994837;28;20219;-68
2023/04/11 06:10:05;;;;;;;17.27;15.43;;;;;;;8.18;60.58;94572.88;4994328;28;20586;-67
2023/04/11 06:12:31;;;;;;;16.27;14.73;;;;;;;8.34;60.55;94580.06;4991501;28;20227;-67
2023/04/11 06:14:57;;;;;;;15.70;14.20;;;;;;;8.23;60.11;94573.25;4993952;28;20195;-68
2023/04/11 06:17:23;;;;;;;15.20;13.80;;;;;;;8.37;59.44;94553.59;4993392;28;20219;-67
2023/04/11 06:19:48;;;;;;;15.47;14.07;;;;;;;8.32;59.44;94568.94;4991791;28;20274;-67
2023/04/11 06:22:13;;;;;;;15.57;13.97;;;;;;;8.27;60.10;94560.69;4993853;28;20220;-68
2023/04/11 06:24:39;;;;;;;15.30;13.80;;;;;;;8.20;60.23;94555.22;4995122;28;20572;-68
2023/04/11 06:27:09;;;;;;;14.40;13.00;;;;;;;8.27;60.29;94566.75;4994025;28;20187;-68
2023/04/11 06:29:35;;;;;;;14.13;12.73;;;;;;;8.33;60.13;94566.16;4994474;28;20187;-68
2023/04/11 06:32:01;;;;;;;14.70;13.40;;;;;;;8.53;59.09;94574.72;4993561;28;20242;-68
2023/04/11 06:34:26;;;;;;;15.03;13.50;;;;;;;8.50;59.35;94566.31;4994460;28;20314;-68
2023/04/11 06:36:52;;;;;;;14.80;13.30;;;;;;;8.53;58.78;94561.63;4993576;28;20219;-67
2023/04/11 06:39:18;;;;;;;14.43;13.03;;;;;;;8.78;58.61;94556.59;4993700;28;20291;-67
2023/04/11 06:41:45;;;;;;;14.03;12.43;;;;;;;8.73;58.45;94566.69;4991936;28;20279;-68
2023/04/11 06:44:11;;;;;;;12.93;11.73;;;;;;;8.64;58.93;94560.56;4992709;28;20220;-68
2023/04/11 06:46:36;;;;;;;13.00;11.80;;;;;;;8.74;58.35;94535.09;5004452;28;20217;-68
2023/04/11 06:49:02;;;;;;;13.57;12.23;;;;;;;8.84;58.18;94545.47;4993678;28;20288;-68
2023/04/11 06:51:28;;;;;;;13.43;12.13;;;;;;;8.71;58.56;94538.00;4993917;28;20223;-68
2023/04/11 06:53:53;;;;;;;12.80;11.63;;;;;;;8.38;59.73;94545.56;4994030;28;20250;-68
2023/04/11 06:56:19;;;;;;;12.70;11.40;;;;;;;8.52;59.61;94532.94;4992128;28;20254;-68
2023/04/11 06:58:44;;;;;;;12.73;11.43;;;;;;;8.75;58.02;94549.84;4993696;28;20278;-68
2023/04/11 07:01:11;;;;;;;12.13;10.73;;;;;;;8.88;57.09;94552.06;4991767;28;20224;-68
2023/04/11 07:03:36;;;;;;;12.10;10.83;;;;;;;8.58;58.05;94555.91;4990002;28;20239;-68
2023/04/11 07:06:02;;;;;;;12.70;11.53;;;;;;;8.71;57.74;94558.97;4993644;28;20186;-67
2023/04/11 07:08:27;;;;;;;12.73;11.53;;;;;;;8.82;57.81;94556.13;4992803;28;20199;-68
2023/04/11 07:10:54;;;;;;;11.83;10.63;;;;;;;8.82;57.82;94555.28;4992979;28;20231;-68
2023/04/11 07:13:20;;;;;;;11.00;9.77;;;;;;;8.97;56.95;94545.91;4988592;28;20227;-68
2023/04/11 07:15:45;;;;;;;12.10;10.97;;;;;;;8.92;56.53;94553.41;4993221;28;20236;-69
2023/04/11 07:18:11;;;;;;;10.90;9.77;;;;;;;9.04;56.50;94564.47;4991968;28;20206;-68
2023/04/11 07:20:36;;;;;;;12.07;10.97;;;;;;;8.97;56.46;94542.47;4993799;28;20194;-68
2023/04/11 07:23:02;;;;;;;11.90;10.30;;;;;;;8.93;56.84;94546.38;4993184;28;20223;-68
2023/04/11 07:25:32;;;;;;;11.67;10.30;;;;;;;8.95;57.11;94547.03;4991675;28;20243;-68
2023/04/11 07:27:59;;;;;;;12.27;11.07;;;;;;;8.96;57.12;94543.44;4992417;28;20225;-68
2023/04/11 07:30:24;;;;;;;12.93;11.70;;;;;;;9.11;57.52;94536.66;4989094;28;20315;-69
2023/04/11 07:32:50;;;;;;;12.47;11.17;;;;;;;9.30;56.67;94537.41;4973989;28;20258;-68
2023/04/11 07:35:15;;;;;;;11.97;10.80;;;;;;;9.49;56.31;94532.78;4972926;28;20223;-68
2023/04/11 07:37:41;;;;;;;11.30;9.37;;;;;;;9.55;55.88;94536.56;4986963;28;20238;-69
2023/04/11 07:40:12;;;;;;;10.73;9.80;;;;;;;9.19;56.81;94536.69;4991756;28;20301;-68
2023/04/11 07:42:38;;;;;;;10.67;9.67;;;;;;;9.15;56.52;94530.13;4991732;28;20228;-68
2023/04/11 07:45:04;;;;;;;11.60;10.40;;;;;;;9.12;56.86;94534.88;5003119;28;20265;-68
2023/04/11 07:47:30;;;;;;;12.43;11.13;;;;;;;9.34;56.40;94529.09;4993236;28;20188;-68
2023/04/11 07:49:55;;;;;;;11.47;10.37;;;;;;;9.50;56.24;94525.72;4992046;28;20234;-68
2023/04/11 07:52:20;;;;;;;10.67;9.67;;;;;;;9.56;55.72;94519.00;4992273;28;20277;-68
2023/04/11 07:54:46;;;;;;;10.67;9.60;;;;;;;9.74;54.66;94518.94;4992306;28;20223;-68
2023/04/11 07:57:11;;;;;;;11.13;10.03;;;;;;;9.58;55.44;94519.69;4992905;28;20210;-68
2023/04/11 07:59:37;;;;;;;11.50;10.03;;;;;;;9.85;54.52;94516.00;4992046;28;20226;-69
2023/04/11 08:02:03;;;;;;;11.27;10.10;;;;;;;9.98;53.78;94512.94;4992248;28;20350;-69
2023/04/11 08:04:32;;;;;;;11.23;10.23;;;;;;;10.11;54.13;94522.00;4990681;28;20248;-69
2023/04/11 08:06:58;;;;;;;11.03;9.97;;;;;;;10.17;54.00;94504.75;5002451;28;20231;-69
2023/04/11 08:09:24;;;;;;;11.70;10.60;;;;;;;10.40;53.88;94491.84;4986744;28;20216;-69
2023/04/11 08:11:49;;;;;;;10.63;9.73;;;;;;;10.71;52.74;94493.81;4989603;28;20192;-69
2023/04/11 08:14:15;;;;;;;10.90;9.90;;;;;;;10.55;52.66;94486.75;4989112;28;20223;-69
2023/04/11 08:16:41;;;;;;;10.90;9.50;;;;;;;10.72;51.75;94495.44;4992033;28;20715;-69
2023/04/11 08:19:06;;;;;;;9.90;8.90;;;;;;;10.47;51.58;94490.19;4990374;28;20331;-68
2023/04/11 08:21:32;;;;;;;10.50;9.50;;;;;;;10.74;50.79;94493.47;4991674;28;20227;-69
2023/04/11 08:23:57;;;;;;;10.20;9.03;;;;;;;10.76;50.67;94488.88;4988753;28;20554;-69
2023/04/11 08:26:23;;;;;;;9.05;8.15;;;;;;;10.69;51.65;94490.50;4983569;28;20220;-68
2023/04/11 08:28:49;;;;;;;8.97;8.07;;;;;;;10.82;51.05;94478.53;4989858;28;20281;-68
2023/04/11 08:31:14;;;;;;;8.97;8.17;;;;;;;11.03;50.20;94470.09;4991697;28;20224;-69
2023/04/11 08:33:40;;;;;;;9.07;8.27;;;;;;;10.94;50.04;94481.63;4989997;28;20227;-69
2023/04/11 08:36:08;;;;;;;8.52;7.60;;;;;;;10.74;50.67;94475.06;4989664;28;20278;-69
2023/04/11 08:38:38;;;;;;;8.55;7.75;;;;;;;10.80;48.81;94480.50;4978882;28;20199;-68
2023/04/11 08:41:04;;;;;;;9.07;8.18;;;;;;;10.80;49.70;94479.69;4993526;28;20247;-68
2023/04/11 08:43:37;;;;;;;8.75;7.85;;;;;;;10.79;49.49;94478.03;4992088;28;20250;-67
2023/04/11 08:46:03;;;;;;;8.07;7.13;;;;;;;10.71;48.98;94475.41;4991521;28;20308;-68
2023/04/11 08:48:29;;;;;;;8.37;7.50;;;;;;;10.63;49.52;94465.72;4989474;28;20251;-68
2023/04/11 08:50:55;;;;;;;9.30;8.30;;;;;;;10.82;49.23;94457.50;4992200;28;20195;-68
2023/04/11 08:53:23;;;;;;;7.90;7.20;;;;;;;10.85;48.43;94456.31;4991581;28;20223;-68
2023/04/11 08:55:49;;;;;;;8.93;8.03;;;;;;;11.00;48.30;94457.28;4991515;28;20266;-68
2023/04/11 08:58:15;;;;;;;8.77;7.97;;;;;;;10.99;48.10;94458.28;4991128;28;20234;-68
2023/04/11 09:00:41;;;;;;;9.10;8.20;;;;;;;11.15;48.11;94451.34;4991052;28;20223;-68
2023/04/11 09:03:09;;;;;;;7.97;7.27;;;;;;;11.21;47.94;94467.25;4987451;28;20184;-68
2023/04/11 09:05:40;;;;;;;8.63;7.87;;;;;;;11.47;46.96;94458.28;4989377;28;20247;-69
2023/04/11 09:08:13;;;;;;;8.27;7.57;;;;;;;11.29;47.38;94450.63;4978402;28;20286;-68
2023/04/11 09:10:40;;;;;;;9.77;7.93;;;;;;;11.39;46.42;94448.63;4988660;28;20224;-68
2023/04/11 09:13:23;;;;;;;9.23;7.25;;;;;;;11.71;46.20;94444.19;4991514;28;20246;-68
2023/04/11 09:16:04;;;;;;;8.82;8.02;;;;;;;11.86;46.28;94431.94;4990827;28;20236;-68
2023/04/11 09:18:35;;;;;;;7.67;7.07;;;;;;;12.17;44.77;94423.19;4990171;28;20270;-70
2023/04/11 09:21:03;;;;;;;8.05;7.35;;;;;;;12.14;44.48;94427.00;4991144;28;20183;-69
2023/04/11 09:23:29;;;;;;;8.98;8.18;;;;;;;12.10;44.82;94420.41;4988302;28;20180;-69
2023/04/11 09:25:55;;;;;;;8.60;7.47;;;;;;;12.24;43.45;94428.56;4986090;28;20219;-69
2023/04/11 09:28:21;;;;;;;7.68;6.97;;;;;;;12.18;43.79;94411.63;4990034;28;20290;-69
2023/04/11 09:30:51;;;;;;;8.65;7.93;;;;;;;12.12;44.61;94415.00;4986938;28;20686;-69
2023/04/11 09:33:24;;;;;;;8.03;7.33;;;;;;;12.28;44.37;94406.13;4991373;28;20214;-68
2023/04/11 09:35:55;;;;;;;7.97;7.20;;;;;;;12.40;43.91;94403.88;4975458;28;20231;-69
2023/04/11 09:38:31;;;;;;;9.20;8.40;;;;;;;12.22;44.87;94397.13;4991302;28;20223;-68
2023/04/11 09:40:58;;;;;;;8.13;7.30;;;;;;;12.50;44.30;94404.47;5005992;28;20276;-69
2023/04/11 09:43:24;;;;;;;9.00;8.20;;;;;;;12.44;44.19;94394.63;4990973;28;20223;-69
2023/04/11 09:46:10;;;;;;;8.47;7.70;;;;;;;12.49;43.90;94395.75;4982290;28;20227;-68
2023/04/11 09:48:37;;;;;;;8.33;7.63;;;;;;;12.38;44.40;94384.81;4990376;28;20250;-69
2023/04/11 09:51:05;;;;;;;9.17;8.27;;;;;;;12.39;44.51;94384.63;4990598;28;20203;-68
2023/04/11 09:53:33;;;;;;;8.60;7.82;;;;;;;12.40;43.97;94373.06;4989211;28;20183;-69
2023/04/11 09:55:59;;;;;;;9.53;8.73;;;;;;;12.45;44.40;94373.34;4988127;28;20351;-69
2023/04/11 09:58:25;;;;;;;8.57;7.77;;;;;;;12.53;43.30;94381.19;4988107;28;20246;-70
2023/04/11 10:00:51;;;;;;;8.98;8.18;;;;;;;12.18;43.55;94368.66;4990861;28;20250;-69
2023/04/11 10:03:18;;;;;;;10.87;8.10;;;;;;;11.87;44.44;94370.38;4990991;28;20198;-69
2023/04/11 10:05:45;;;;;;;9.50;8.63;;;;;;;12.02;44.34;94374.88;4994403;28;20273;-68
2023/04/11 10:08:31;;;;;;;9.00;8.10;;;;;;;12.03;43.80;94363.31;4990524;28;20251;-68
2023/04/11 10:11:01;;;;;;;9.73;8.73;;;;;;;12.27;43.69;94357.88;4990611;28;20223;-68
2023/04/11 10:13:46;;;;;;;9.47;8.57;;;;;;;12.55;43.48;94366.00;4974658;28;20211;-68
2023/04/11 10:16:13;;;;;;;9.25;8.35;;;;;;;12.79;43.31;94369.41;4990596;28;20381;-68
2023/04/11 10:18:51;;;;;;;8.70;8.00;;;;;;;12.95;41.99;94360.50;4989129;28;20315;-68
2023/04/11 10:21:35;;;;;;;9.43;8.53;;;;;;;13.02;41.91;94362.22;4990364;28;20199;-70
2023/04/11 10:24:13;;;;;;;9.23;8.33;;;;;;;13.14;41.52;94344.09;4987758;28;20657;-68
2023/04/11 10:26:48;;;;;;;9.33;8.43;;;;;;;13.38;40.91;94350.09;4990807;28;20211;-68
2023/04/11 10:29:31;;;;;;;8.93;8.13;;;;;;;13.53;40.35;94342.16;4987291;28;20223;-68
2023/04/11 10:32:15;;;;;;;8.45;7.60;;;;;;;13.71;39.72;94331.97;4992185;28;20240;-69
2023/04/11 10:34:53;;;;;;;8.77;7.97;;;;;;;13.73;39.22;94329.16;4992124;28;20223;-68
2023/04/11 10:37:31;;;;;;;9.68;8.77;;;;;;;13.79;39.52;94323.94;5007857;28;20335;-69
2023/04/11 10:39:59;;;;;;;8.10;7.40;;;;;;;13.67;39.26;94320.16;4985886;28;20234;-68
2023/04/11 10:42:38;;;;;;;8.80;8.00;;;;;;;13.73;39.13;94314.13;4996209;28;20317;-68
2023/04/11 10:45:12;;;;;;;8.77;8.00;;;;;;;13.90;38.56;94304.94;4992165;28;20248;-71
2023/04/11 10:47:38;;;;;;;8.82;8.02;;;;;;;13.96;39.23;94311.28;4992336;28;20663;-71
2023/04/11 10:50:24;;;;;;;8.15;7.35;;;;;;;13.79;37.83;94304.59;4994361;28;20227;-71
2023/04/11 10:52:50;;;;;;;7.78;7.18;;;;;;;13.79;38.00;94297.53;5003172;28;20231;-71
2023/04/11 10:55:16;;;;;;;7.55;6.85;;;;;;;13.88;38.13;94293.72;4996036;28;20261;-72
2023/04/11 10:58:07;;;;;;;7.68;7.05;;;;;;;14.31;36.42;94295.50;4978183;28;20293;-71
2023/04/11 11:00:54;;;;;;;7.10;6.47;;;;;;;14.87;35.63;94305.25;4986071;28;20224;-71
2023/04/11 11:03:29;;;;;;;7.32;6.72;;;;;;;14.60;35.88;94296.34;4985073;28;20199;-72
2023/04/11 11:05:58;;;;;;;7.55;6.95;;;;;;;14.44;36.05;94298.25;4994639;28;20187;-70
2023/04/11 11:08:29;;;;;;;7.93;7.32;;;;;;;14.50;36.55;94272.84;4984998;28;20285;-71
2023/04/11 11:11:02;;;;;;;7.18;6.55;;;;;;;14.90;35.84;94260.69;4985269;28;20227;-72
2023/04/11 11:13:54;;;;;;;7.00;6.40;;;;;;;15.37;33.71;94266.97;4995003;28;20302;-72
2023/04/11 11:16:25;;;;;;;7.35;6.75;;;;;;;15.25;34.03;94263.25;4986118;28;20234;-72
2023/04/11 11:18:57;;;;;;;6.38;5.88;;;;;;;15.18;33.33;94268.56;4994642;28;20690;-71
2023/04/11 11:21:26;;;;;;;6.82;6.32;;;;;;;14.67;34.08;94254.84;4988986;28;20216;-71
2023/04/11 11:24:02;;;;;;;7.22;6.63;;;;;;;14.54;34.77;94266.19;4985705;28;20267;-72
2023/04/11 11:26:42;;;;;;;7.97;7.28;;;;;;;14.34;35.85;94266.03;4988672;28;20226;-71
2023/04/11 11:29:08;;;;;;;7.95;7.25;;;;;;;14.28;35.96;94264.16;4986904;28;20302;-72